sensor_id;sensor_type;location;lat;lon;timestamp;pressure;altitude;pressure_sealevel;temperature;humidity
76126;BME280;65174;48.138;21.002;2023-02-15T00:00:06;101036.41;;;2.33;75.54
76126;BME280;65174;48.138;21.002;2023-02-15T00:03:12;101028.84;;;2.26;76.33
76126;BME280;65174;48.138;21.002;2023-02-15T00:06:14;101022.91;;;2.19;76.47
76126;BME280;65174;48.138;21.002;2023-02-15T00:09:16;101023.78;;;2.14;76.68
76126;BME280;65174;48.138;21.002;2023-02-15T00:12:18;101022.91;;;2.21;76.73
76126;BME280;65174;48.138;21.002;2023-02-15T00:15:20;101022.09;;;2.17;76.73
76126;BME280;65174;48.138;21.002;2023-02-15T00:18:22;101013.56;;;2.18;76.10
76126;BME280;65174;48.138;21.002;2023-02-15T00:21:24;101020.38;;;2.16;76.48
76126;BME280;65174;48.138;21.002;2023-02-15T00:24:26;101026.31;;;2.21;77.12
76126;BME280;65174;48.138;21.002;2023-02-15T00:27:28;101025.44;;;2.18;76.96
76126;BME280;65174;48.138;21.002;2023-02-15T00:30:31;101018.69;;;2.15;76.82
76126;BME280;65174;48.138;21.002;2023-02-15T00:33:33;101010.13;;;2.28;76.50
76126;BME280;65174;48.138;21.002;2023-02-15T00:36:35;101021.19;;;2.26;76.61
76126;BME280;65174;48.138;21.002;2023-02-15T00:39:37;101019.53;;;2.19;76.49
76126;BME280;65174;48.138;21.002;2023-02-15T00:42:40;101013.59;;;2.12;77.22
76126;BME280;65174;48.138;21.002;2023-02-15T00:47:43;101010.25;;;2.01;77.02
76126;BME280;65174;48.138;21.002;2023-02-15T00:51:45;101005.19;;;1.95;77.45
76126;BME280;65174;48.138;21.002;2023-02-15T01:15:54;100988.16;;;2.11;77.13
76126;BME280;65174;48.138;21.002;2023-02-15T01:20:56;100983.94;;;2.08;76.36
76126;BME280;65174;48.138;21.002;2023-02-15T01:26:02;100982.19;;;2.16;76.15
76126;BME280;65174;48.138;21.002;2023-02-15T01:57:22;100969.47;;;2.16;76.63
76126;BME280;65174;48.138;21.002;2023-02-15T02:05:51;100967.19;;;1.56;78.09
76126;BME280;65174;48.138;21.002;2023-02-15T02:08:54;100959.59;;;1.47;78.80
76126;BME280;65174;48.138;21.002;2023-02-15T02:11:56;100960.44;;;1.56;78.73
76126;BME280;65174;48.138;21.002;2023-02-15T02:14:59;100963.78;;;1.61;78.75
76126;BME280;65174;48.138;21.002;2023-02-15T02:34:35;100962.88;;;1.78;77.70
76126;BME280;65174;48.138;21.002;2023-02-15T02:38:37;100962.03;;;1.74;78.32
76126;BME280;65174;48.138;21.002;2023-02-15T02:41:36;100970.59;;;1.53;78.04
76126;BME280;65174;48.138;21.002;2023-02-15T02:44:44;100965.56;;;1.37;78.24
76126;BME280;65174;48.138;21.002;2023-02-15T02:47:53;100962.19;;;1.29;77.95
76126;BME280;65174;48.138;21.002;2023-02-15T02:50:57;100968.97;;;1.18;79.05
76126;BME280;65174;48.138;21.002;2023-02-15T02:54:01;100964.78;;;1.08;79.71
76126;BME280;65174;48.138;21.002;2023-02-15T02:57:08;100968.13;;;1.22;79.78
76126;BME280;65174;48.138;21.002;2023-02-15T03:00:11;100969.81;;;1.20;79.09
76126;BME280;65174;48.138;21.002;2023-02-15T03:03:38;100967.31;;;1.21;78.98
76126;BME280;65174;48.138;21.002;2023-02-15T03:06:58;100956.28;;;1.13;78.97
76126;BME280;65174;48.138;21.002;2023-02-15T03:10:04;100959.66;;;1.15;79.01
76126;BME280;65174;48.138;21.002;2023-02-15T03:13:07;100964.72;;;1.26;78.88
76126;BME280;65174;48.138;21.002;2023-02-15T03:16:11;100966.41;;;1.33;79.20
76126;BME280;65174;48.138;21.002;2023-02-15T03:19:32;100970.63;;;1.46;78.35
76126;BME280;65174;48.138;21.002;2023-02-15T03:23:06;100978.25;;;1.55;78.65
76126;BME280;65174;48.138;21.002;2023-02-15T03:26:12;100973.09;;;1.64;78.41
76126;BME280;65174;48.138;21.002;2023-02-15T03:29:15;100973.06;;;1.73;77.30
76126;BME280;65174;48.138;21.002;2023-02-15T03:32:19;100974.81;;;1.65;77.37
76126;BME280;65174;48.138;21.002;2023-02-15T03:35:24;100977.28;;;1.79;77.66
76126;BME280;65174;48.138;21.002;2023-02-15T03:38:33;100980.66;;;1.88;78.34
76126;BME280;65174;48.138;21.002;2023-02-15T03:41:50;100975.50;;;1.96;77.26
76126;BME280;65174;48.138;21.002;2023-02-15T03:45:13;100974.69;;;1.94;76.98
76126;BME280;65174;48.138;21.002;2023-02-15T03:48:18;100969.59;;;1.89;77.32
76126;BME280;65174;48.138;21.002;2023-02-15T03:51:28;100972.13;;;1.95;76.63
76126;BME280;65174;48.138;21.002;2023-02-15T03:54:38;100968.75;;;1.92;76.94
76126;BME280;65174;48.138;21.002;2023-02-15T03:57:44;100965.38;;;1.90;77.44
76126;BME280;65174;48.138;21.002;2023-02-15T04:01:32;100972.19;;;1.79;77.44
76126;BME280;65174;48.138;21.002;2023-02-15T04:05:04;100971.44;;;1.51;77.98
76126;BME280;65174;48.138;21.002;2023-02-15T04:08:06;100971.44;;;1.49;79.07
76126;BME280;65174;48.138;21.002;2023-02-15T04:11:08;100970.63;;;1.55;79.70
76126;BME280;65174;48.138;21.002;2023-02-15T04:14:10;100969.69;;;1.63;78.81
76126;BME280;65174;48.138;21.002;2023-02-15T04:17:31;100962.06;;;1.76;78.72
76126;BME280;65174;48.138;21.002;2023-02-15T04:20:33;100969.63;;;1.86;78.39
76126;BME280;65174;48.138;21.002;2023-02-15T04:23:53;100973.00;;;1.87;77.82
76126;BME280;65174;48.138;21.002;2023-02-15T04:27:13;100974.75;;;1.74;78.40
76126;BME280;65174;48.138;21.002;2023-02-15T04:30:18;100981.50;;;1.90;77.59
76126;BME280;65174;48.138;21.002;2023-02-15T04:33:21;100978.97;;;1.78;78.15
76126;BME280;65174;48.138;21.002;2023-02-15T04:36:23;100978.94;;;1.89;77.96
76126;BME280;65174;48.138;21.002;2023-02-15T04:39:24;100971.31;;;1.90;77.37
76126;BME280;65174;48.138;21.002;2023-02-15T04:42:27;100976.44;;;1.81;77.79
76126;BME280;65174;48.138;21.002;2023-02-15T04:45:29;100983.22;;;1.84;77.47
76126;BME280;65174;48.138;21.002;2023-02-15T04:48:31;100979.81;;;1.80;76.99
76126;BME280;65174;48.138;21.002;2023-02-15T04:51:33;100980.72;;;1.66;77.52
76126;BME280;65174;48.138;21.002;2023-02-15T04:54:34;100980.78;;;1.56;78.01
76126;BME280;65174;48.138;21.002;2023-02-15T04:57:36;100990.94;;;1.53;78.52
76126;BME280;65174;48.138;21.002;2023-02-15T05:00:38;100982.53;;;1.38;78.85
76126;BME280;65174;48.138;21.002;2023-02-15T05:03:40;100985.06;;;1.24;78.14
76126;BME280;65174;48.138;21.002;2023-02-15T05:06:42;100996.13;;;1.08;78.48
76126;BME280;65174;48.138;21.002;2023-02-15T05:09:45;100985.97;;;0.98;79.36
76126;BME280;65174;48.138;21.002;2023-02-15T05:12:46;100979.19;;;1.00;80.06
76126;BME280;65174;48.138;21.002;2023-02-15T05:15:53;100993.56;;;1.16;79.73
76126;BME280;65174;48.138;21.002;2023-02-15T05:18:55;101000.31;;;1.20;79.51
76126;BME280;65174;48.138;21.002;2023-02-15T05:22:03;100969.88;;;1.06;79.50
76126;BME280;65174;48.138;21.002;2023-02-15T05:25:05;100991.88;;;1.25;79.26
76126;BME280;65174;48.138;21.002;2023-02-15T05:28:27;101000.28;;;1.36;79.24
76126;BME280;65174;48.138;21.002;2023-02-15T05:31:30;100996.91;;;1.46;78.40
76126;BME280;65174;48.138;21.002;2023-02-15T05:34:32;101001.19;;;1.29;79.98
76126;BME280;65174;48.138;21.002;2023-02-15T05:37:34;101000.31;;;1.38;79.76
76126;BME280;65174;48.138;21.002;2023-02-15T05:40:36;101006.25;;;1.44;78.76
76126;BME280;65174;48.138;21.002;2023-02-15T05:43:38;101008.75;;;1.52;78.24
76126;BME280;65174;48.138;21.002;2023-02-15T05:46:40;101018.06;;;1.51;78.37
76126;BME280;65174;48.138;21.002;2023-02-15T05:49:42;101029.13;;;1.37;77.50
76126;BME280;65174;48.138;21.002;2023-02-15T05:52:44;101035.94;;;1.05;78.60
76126;BME280;65174;48.138;21.002;2023-02-15T05:55:46;101030.84;;;1.03;79.56
76126;BME280;65174;48.138;21.002;2023-02-15T05:58:48;101034.22;;;1.16;79.70
76126;BME280;65174;48.138;21.002;2023-02-15T06:01:50;101035.91;;;1.20;79.40
76126;BME280;65174;48.138;21.002;2023-02-15T06:04:51;101040.13;;;1.33;79.10
76126;BME280;65174;48.138;21.002;2023-02-15T06:07:53;101047.75;;;1.52;79.22
76126;BME280;65174;48.138;21.002;2023-02-15T06:10:55;101047.72;;;1.63;78.68
76126;BME280;65174;48.138;21.002;2023-02-15T06:13:57;101048.56;;;1.65;78.50
76126;BME280;65174;48.138;21.002;2023-02-15T06:16:59;101045.97;;;1.74;77.94
76126;BME280;65174;48.138;21.002;2023-02-15T06:20:01;101052.72;;;1.89;77.48
76126;BME280;65174;48.138;21.002;2023-02-15T06:31:43;101056.91;;;2.08;77.25
76126;BME280;65174;48.138;21.002;2023-02-15T06:34:45;101060.28;;;2.17;76.92
76126;BME280;65174;48.138;21.002;2023-02-15T06:37:49;101051.81;;;2.08;76.91
76126;BME280;65174;48.138;21.002;2023-02-15T06:40:51;101061.09;;;2.24;76.77
76126;BME280;65174;48.138;21.002;2023-02-15T06:43:53;101060.22;;;2.25;76.60
76126;BME280;65174;48.138;21.002;2023-02-15T06:46:55;101052.66;;;2.13;76.88
76126;BME280;65174;48.138;21.002;2023-02-15T06:49:57;101064.41;;;2.39;76.33
76126;BME280;65174;48.138;21.002;2023-02-15T06:52:59;101059.28;;;2.47;76.17
76126;BME280;65174;48.138;21.002;2023-02-15T06:56:06;101065.09;;;2.67;76.25
76126;BME280;65174;48.138;21.002;2023-02-15T06:59:11;101054.78;;;2.87;75.98
76126;BME280;65174;48.138;21.002;2023-02-15T07:02:14;101053.91;;;2.91;75.36
76126;BME280;65174;48.138;21.002;2023-02-15T07:05:17;101058.94;;;2.95;75.05
76126;BME280;65174;48.138;21.002;2023-02-15T07:08:22;101053.81;;;3.00;75.12
76126;BME280;65174;48.138;21.002;2023-02-15T07:11:26;101046.88;;;3.17;74.56
76126;BME280;65174;48.138;21.002;2023-02-15T07:14:49;101045.84;;;3.36;73.63
76126;BME280;65174;48.138;21.002;2023-02-15T07:17:55;101039.03;;;3.38;73.54
76126;BME280;65174;48.138;21.002;2023-02-15T07:21:00;101039.75;;;3.52;72.80
76126;BME280;65174;48.138;21.002;2023-02-15T07:24:25;101056.69;;;3.59;72.20
76126;BME280;65174;48.138;21.002;2023-02-15T07:27:57;101050.00;;;3.46;73.34
76126;BME280;65174;48.138;21.002;2023-02-15T07:31:03;101051.81;;;3.37;72.82
76126;BME280;65174;48.138;21.002;2023-02-15T07:34:28;101048.38;;;3.41;72.73
76126;BME280;65174;48.138;21.002;2023-02-15T07:39:05;101046.72;;;3.35;72.92
76126;BME280;65174;48.138;21.002;2023-02-15T07:43:25;101042.44;;;3.36;73.18
76126;BME280;65174;48.138;21.002;2023-02-15T07:46:48;101042.34;;;3.49;72.13
76126;BME280;65174;48.138;21.002;2023-02-15T07:51:06;101045.78;;;3.45;72.83
76126;BME280;65174;48.138;21.002;2023-02-15T07:54:09;101042.25;;;3.57;72.50
76126;BME280;65174;48.138;21.002;2023-02-15T07:57:32;101040.38;;;3.71;72.11
76126;BME280;65174;48.138;21.002;2023-02-15T08:02:10;101041.28;;;3.68;72.08
76126;BME280;65174;48.138;21.002;2023-02-15T08:06:45;101033.47;;;3.82;72.11
76126;BME280;65174;48.138;21.002;2023-02-15T08:11:30;101040.22;;;3.87;72.17
76126;BME280;65174;48.138;21.002;2023-02-15T08:16:10;101039.31;;;3.91;71.28
76126;BME280;65174;48.138;21.002;2023-02-15T08:20:50;101036.00;;;3.83;71.51
76126;BME280;65174;48.138;21.002;2023-02-15T08:24:27;101026.81;;;3.70;71.89
76126;BME280;65174;48.138;21.002;2023-02-15T08:28:28;101029.88;;;3.96;71.56
76126;BME280;65174;48.138;21.002;2023-02-15T08:32:15;101028.00;;;4.12;70.97
76126;BME280;65174;48.138;21.002;2023-02-15T08:35:19;101020.16;;;4.26;70.57
76126;BME280;65174;48.138;21.002;2023-02-15T08:38:21;101011.84;;;4.12;70.77
76126;BME280;65174;48.138;21.002;2023-02-15T08:41:29;101025.94;;;4.40;70.03
76126;BME280;65174;48.138;21.002;2023-02-15T08:44:35;101021.66;;;4.42;69.97
76126;BME280;65174;48.138;21.002;2023-02-15T08:47:57;101014.38;;;4.12;70.25
76126;BME280;65174;48.138;21.002;2023-02-15T08:52:13;101012.31;;;4.38;70.67
76126;BME280;65174;48.138;21.002;2023-02-15T08:55:35;101013.22;;;4.34;69.71
76126;BME280;65174;48.138;21.002;2023-02-15T08:59:16;101023.81;;;4.08;70.78
76126;BME280;65174;48.138;21.002;2023-02-15T09:03:49;101019.88;;;4.47;70.25
76126;BME280;65174;48.138;21.002;2023-02-15T09:08:04;101020.00;;;4.36;70.60
76126;BME280;65174;48.138;21.002;2023-02-15T09:11:26;101018.25;;;4.41;70.74
76126;BME280;65174;48.138;21.002;2023-02-15T09:16:03;101016.38;;;4.54;69.27
76126;BME280;65174;48.138;21.002;2023-02-15T09:20:08;101012.41;;;4.88;68.28
76126;BME280;65174;48.138;21.002;2023-02-15T09:24:11;101014.22;;;4.83;68.20
76126;BME280;65174;48.138;21.002;2023-02-15T09:28:26;101004.13;;;5.24;67.64
76126;BME280;65174;48.138;21.002;2023-02-15T09:31:50;101007.41;;;5.32;66.76
76126;BME280;65174;48.138;21.002;2023-02-15T09:35:32;101000.34;;;5.46;66.31
76126;BME280;65174;48.138;21.002;2023-02-15T09:38:35;100997.88;;;5.40;66.89
76126;BME280;65174;48.138;21.002;2023-02-15T09:45:49;100999.19;;;5.61;65.98
76126;BME280;65174;48.138;21.002;2023-02-15T09:49:02;100994.94;;;5.60;66.89
76126;BME280;65174;48.138;21.002;2023-02-15T09:52:31;100991.19;;;5.33;66.20
76126;BME280;65174;48.138;21.002;2023-02-15T09:55:51;100991.53;;;5.61;66.65
76126;BME280;65174;48.138;21.002;2023-02-15T10:02:11;100983.09;;;5.99;64.36
76126;BME280;65174;48.138;21.002;2023-02-15T10:19:08;100959.59;;;6.18;63.70
76126;BME280;65174;48.138;21.002;2023-02-15T10:26:01;100972.69;;;6.45;62.52
76126;BME280;65174;48.138;21.002;2023-02-15T10:29:09;100976.38;;;6.33;62.55
76126;BME280;65174;48.138;21.002;2023-02-15T10:32:26;100969.38;;;6.03;63.87
76126;BME280;65174;48.138;21.002;2023-02-15T10:35:38;100969.66;;;6.27;62.70
76126;BME280;65174;48.138;21.002;2023-02-15T10:39:05;100971.91;;;6.41;62.36
76126;BME280;65174;48.138;21.002;2023-02-15T10:45:29;100962.06;;;6.61;61.97
76126;BME280;65174;48.138;21.002;2023-02-15T10:52:21;100960.69;;;6.82;60.54
76126;BME280;65174;48.138;21.002;2023-02-15T11:09:10;100950.53;;;7.11;60.62
76126;BME280;65174;48.138;21.002;2023-02-15T11:20:27;100939.06;;;6.92;62.08
76126;BME280;65174;48.138;21.002;2023-02-15T11:23:32;100939.19;;;7.19;61.55
76126;BME280;65174;48.138;21.002;2023-02-15T11:26:57;100934.28;;;7.10;61.45
76126;BME280;65174;48.138;21.002;2023-02-15T11:33:38;100921.84;;;7.28;60.39
76126;BME280;65174;48.138;21.002;2023-02-15T11:36:43;100924.94;;;7.40;60.74
76126;BME280;65174;48.138;21.002;2023-02-15T11:39:45;100917.84;;;7.50;59.86
76126;BME280;65174;48.138;21.002;2023-02-15T11:42:56;100905.94;;;7.46;59.45
76126;BME280;65174;48.138;21.002;2023-02-15T11:46:00;100890.47;;;7.49;60.95
76126;BME280;65174;48.138;21.002;2023-02-15T11:49:09;100899.13;;;7.45;60.50
76126;BME280;65174;48.138;21.002;2023-02-15T11:52:21;100899.13;;;7.45;60.04
76126;BME280;65174;48.138;21.002;2023-02-15T11:55:23;100897.41;;;7.74;58.92
76126;BME280;65174;48.138;21.002;2023-02-15T11:58:40;100888.38;;;7.61;58.48
76126;BME280;65174;48.138;21.002;2023-02-15T12:01:45;100900.25;;;7.65;58.44
76126;BME280;65174;48.138;21.002;2023-02-15T12:04:58;100894.38;;;7.62;59.22
76126;BME280;65174;48.138;21.002;2023-02-15T12:08:16;100884.78;;;7.67;58.76
76126;BME280;65174;48.138;21.002;2023-02-15T12:11:25;100884.59;;;7.44;58.90
76126;BME280;65174;48.138;21.002;2023-02-15T12:14:46;100883.97;;;7.05;59.78
76126;BME280;65174;48.138;21.002;2023-02-15T12:20:51;100870.47;;;7.58;59.92
76126;BME280;65174;48.138;21.002;2023-02-15T12:24:00;100872.41;;;7.52;58.92
76126;BME280;65174;48.138;21.002;2023-02-15T12:27:14;100870.53;;;7.57;59.09
76126;BME280;65174;48.138;21.002;2023-02-15T12:30:21;100861.41;;;7.76;58.60
76126;BME280;65174;48.138;21.002;2023-02-15T12:33:30;100853.97;;;7.67;58.98
76126;BME280;65174;48.138;21.002;2023-02-15T12:36:41;100853.22;;;7.63;58.46
76126;BME280;65174;48.138;21.002;2023-02-15T12:39:56;100847.69;;;7.77;59.07
76126;BME280;65174;48.138;21.002;2023-02-15T12:42:59;100837.50;;;7.45;59.17
76126;BME280;65174;48.138;21.002;2023-02-15T12:46:23;100844.72;;;7.61;59.69
76126;BME280;65174;48.138;21.002;2023-02-15T12:49:30;100832.31;;;7.46;59.43
76126;BME280;65174;48.138;21.002;2023-02-15T12:52:32;100833.38;;;7.68;59.44
76126;BME280;65174;48.138;21.002;2023-02-15T12:55:34;100832.81;;;7.86;58.22
76126;BME280;65174;48.138;21.002;2023-02-15T12:58:40;100828.13;;;7.73;58.41
76126;BME280;65174;48.138;21.002;2023-02-15T13:01:43;100831.38;;;7.78;58.46
76126;BME280;65174;48.138;21.002;2023-02-15T13:04:49;100829.97;;;7.68;59.28
76126;BME280;65174;48.138;21.002;2023-02-15T13:08:21;100824.56;;;7.77;58.59
76126;BME280;65174;48.138;21.002;2023-02-15T13:12:23;100819.84;;;7.91;57.92
76126;BME280;65174;48.138;21.002;2023-02-15T13:15:35;100818.59;;;8.02;57.61
76126;BME280;65174;48.138;21.002;2023-02-15T13:18:43;100812.09;;;8.19;57.38
76126;BME280;65174;48.138;21.002;2023-02-15T13:21:48;100806.06;;;8.20;56.85
76126;BME280;65174;48.138;21.002;2023-02-15T13:24:56;100805.50;;;7.84;58.46
76126;BME280;65174;48.138;21.002;2023-02-15T13:28:02;100806.44;;;7.54;58.77
76126;BME280;65174;48.138;21.002;2023-02-15T13:31:12;100798.78;;;7.80;58.36
76126;BME280;65174;48.138;21.002;2023-02-15T13:34:20;100795.59;;;7.72;58.55
76126;BME280;65174;48.138;21.002;2023-02-15T13:41:03;100796.13;;;7.83;58.26
76126;BME280;65174;48.138;21.002;2023-02-15T13:51:07;100781.09;;;7.97;57.75
76126;BME280;65174;48.138;21.002;2023-02-15T14:15:13;100794.22;;;7.88;59.08
76126;BME280;65174;48.138;21.002;2023-02-15T14:18:28;100787.81;;;7.75;59.44
76126;BME280;65174;48.138;21.002;2023-02-15T14:25:15;100783.59;;;7.72;59.77
76126;BME280;65174;48.138;21.002;2023-02-15T14:28:29;100784.69;;;7.65;59.91
76126;BME280;65174;48.138;21.002;2023-02-15T14:31:41;100788.13;;;7.37;61.08
76126;BME280;65174;48.138;21.002;2023-02-15T14:34:48;100784.94;;;7.29;61.36
76126;BME280;65174;48.138;21.002;2023-02-15T14:44:38;100784.66;;;7.38;61.50
76126;BME280;65174;48.138;21.002;2023-02-15T14:47:55;100780.81;;;7.23;61.98
76126;BME280;65174;48.138;21.002;2023-02-15T14:51:02;100775.88;;;7.17;62.01
76126;BME280;65174;48.138;21.002;2023-02-15T14:57:29;100778.66;;;7.09;62.67
76126;BME280;65174;48.138;21.002;2023-02-15T15:00:38;100778.53;;;7.14;62.18
76126;BME280;65174;48.138;21.002;2023-02-15T15:03:51;100766.94;;;7.01;62.53
76126;BME280;65174;48.138;21.002;2023-02-15T15:07:14;100770.78;;;6.86;63.04
76126;BME280;65174;48.138;21.002;2023-02-15T15:26:22;100768.59;;;6.40;64.72
76126;BME280;65174;48.138;21.002;2023-02-15T15:29:39;100765.34;;;6.34;64.72
76126;BME280;65174;48.138;21.002;2023-02-15T15:36:21;100774.38;;;6.15;65.25
76126;BME280;65174;48.138;21.002;2023-02-15T15:43:01;100765.66;;;5.88;65.81
76126;BME280;65174;48.138;21.002;2023-02-15T15:49:39;100758.69;;;5.56;66.78
76126;BME280;65174;48.138;21.002;2023-02-15T15:52:48;100756.50;;;5.40;66.99
76126;BME280;65174;48.138;21.002;2023-02-15T15:55:57;100766.88;;;5.32;67.44
76126;BME280;65174;48.138;21.002;2023-02-15T15:59:05;100767.13;;;5.22;68.11
76126;BME280;65174;48.138;21.002;2023-02-15T16:02:12;100775.13;;;5.05;68.59
76126;BME280;65174;48.138;21.002;2023-02-15T16:05:14;100769.63;;;4.82;69.05
76126;BME280;65174;48.138;21.002;2023-02-15T16:08:32;100776.41;;;4.84;69.43
76126;BME280;65174;48.138;21.002;2023-02-15T16:11:35;100770.78;;;4.67;69.79
76126;BME280;65174;48.138;21.002;2023-02-15T16:14:41;100770.66;;;4.73;69.40
76126;BME280;65174;48.138;21.002;2023-02-15T16:17:49;100775.28;;;4.56;70.59
76126;BME280;65174;48.138;21.002;2023-02-15T16:20:55;100780.47;;;4.50;70.71
76126;BME280;65174;48.138;21.002;2023-02-15T16:24:21;100780.69;;;4.40;71.31
76126;BME280;65174;48.138;21.002;2023-02-15T16:30:33;100776.38;;;4.42;70.94
76126;BME280;65174;48.138;21.002;2023-02-15T16:33:38;100768.81;;;4.37;71.20
76126;BME280;65174;48.138;21.002;2023-02-15T16:36:40;100774.00;;;4.33;71.39
76126;BME280;65174;48.138;21.002;2023-02-15T16:39:45;100768.06;;;4.31;72.06
76126;BME280;65174;48.138;21.002;2023-02-15T16:42:51;100769.69;;;4.35;71.76
76126;BME280;65174;48.138;21.002;2023-02-15T16:46:03;100773.31;;;4.22;72.16
76126;BME280;65174;48.138;21.002;2023-02-15T16:49:15;100766.47;;;4.25;72.34
76126;BME280;65174;48.138;21.002;2023-02-15T16:52:23;100764.75;;;4.24;71.92
76126;BME280;65174;48.138;21.002;2023-02-15T16:55:38;100769.13;;;4.18;72.36
76126;BME280;65174;48.138;21.002;2023-02-15T16:58:43;100764.16;;;4.10;72.69
76126;BME280;65174;48.138;21.002;2023-02-15T17:01:46;100768.47;;;4.07;73.00
76126;BME280;65174;48.138;21.002;2023-02-15T17:08:24;100759.34;;;3.93;73.59
76126;BME280;65174;48.138;21.002;2023-02-15T17:11:36;100769.44;;;3.99;72.98
76126;BME280;65174;48.138;21.002;2023-02-15T17:14:38;100767.78;;;3.97;73.55
76126;BME280;65174;48.138;21.002;2023-02-15T17:17:43;100766.81;;;4.02;72.57
76126;BME280;65174;48.138;21.002;2023-02-15T17:20:48;100772.16;;;3.89;73.61
76126;BME280;65174;48.138;21.002;2023-02-15T17:23:57;100771.63;;;3.69;74.75
76126;BME280;65174;48.138;21.002;2023-02-15T17:27:23;100763.22;;;3.62;74.65
76126;BME280;65174;48.138;21.002;2023-02-15T17:30:32;100766.72;;;3.55;75.59
76126;BME280;65174;48.138;21.002;2023-02-15T17:33:37;100769.25;;;3.57;74.79
76126;BME280;65174;48.138;21.002;2023-02-15T17:36:57;100768.63;;;3.41;75.72
76126;BME280;65174;48.138;21.002;2023-02-15T17:40:01;100762.84;;;3.30;75.83
76126;BME280;65174;48.138;21.002;2023-02-15T17:43:07;100770.59;;;3.21;76.67
76126;BME280;65174;48.138;21.002;2023-02-15T17:46:09;100768.09;;;3.16;76.50
76126;BME280;65174;48.138;21.002;2023-02-15T17:49:22;100754.63;;;3.08;76.61
76126;BME280;65174;48.138;21.002;2023-02-15T17:52:25;100765.59;;;3.13;76.35
76126;BME280;65174;48.138;21.002;2023-02-15T17:55:30;100754.63;;;3.08;77.01
76126;BME280;65174;48.138;21.002;2023-02-15T17:58:42;100760.44;;;3.19;76.39
76126;BME280;65174;48.138;21.002;2023-02-15T18:01:48;100761.28;;;3.18;77.20
76126;BME280;65174;48.138;21.002;2023-02-15T18:05:13;100763.97;;;3.08;78.14
76126;BME280;65174;48.138;21.002;2023-02-15T18:08:34;100760.69;;;3.01;77.81
76126;BME280;65174;48.138;21.002;2023-02-15T18:11:55;100757.59;;;2.74;78.91
76126;BME280;65174;48.138;21.002;2023-02-15T18:14:58;100766.09;;;2.73;79.63
76126;BME280;65174;48.138;21.002;2023-02-15T18:18:01;100762.78;;;2.65;80.39
76126;BME280;65174;48.138;21.002;2023-02-15T18:21:04;100761.94;;;2.66;79.90
76126;BME280;65174;48.138;21.002;2023-02-15T18:24:22;100762.94;;;2.51;79.88
76126;BME280;65174;48.138;21.002;2023-02-15T18:27:25;100761.34;;;2.42;80.58
76126;BME280;65174;48.138;21.002;2023-02-15T18:30:27;100751.19;;;2.38;81.18
76126;BME280;65174;48.138;21.002;2023-02-15T18:33:35;100758.75;;;2.46;81.05
76126;BME280;65174;48.138;21.002;2023-02-15T18:36:43;100757.88;;;2.48;80.83
76126;BME280;65174;48.138;21.002;2023-02-15T18:39:50;100753.63;;;2.49;80.56
76126;BME280;65174;48.138;21.002;2023-02-15T18:42:55;100756.97;;;2.54;80.80
76126;BME280;65174;48.138;21.002;2023-02-15T18:45:58;100756.09;;;2.58;80.52
76126;BME280;65174;48.138;21.002;2023-02-15T18:49:00;100758.69;;;2.52;80.65
76126;BME280;65174;48.138;21.002;2023-02-15T18:52:05;100759.56;;;2.49;80.91
76126;BME280;65174;48.138;21.002;2023-02-15T18:55:17;100755.31;;;2.50;80.91
76126;BME280;65174;48.138;21.002;2023-02-15T18:58:21;100756.34;;;2.30;81.53
76126;BME280;65174;48.138;21.002;2023-02-15T19:01:24;100757.94;;;2.42;81.17
76126;BME280;65174;48.138;21.002;2023-02-15T19:04:27;100755.41;;;2.39;80.99
76126;BME280;65174;48.138;21.002;2023-02-15T19:07:29;100748.72;;;2.32;81.31
76126;BME280;65174;48.138;21.002;2023-02-15T19:10:33;100747.03;;;2.29;80.62
76126;BME280;65174;48.138;21.002;2023-02-15T19:13:36;100752.25;;;2.14;81.73
76126;BME280;65174;48.138;21.002;2023-02-15T19:16:39;100754.75;;;2.22;81.95
76126;BME280;65174;48.138;21.002;2023-02-15T19:19:44;100761.47;;;2.29;81.61
76126;BME280;65174;48.138;21.002;2023-02-15T19:22:48;100750.41;;;2.31;80.73
76126;BME280;65174;48.138;21.002;2023-02-15T19:25:52;100749.59;;;2.26;81.21
76126;BME280;65174;48.138;21.002;2023-02-15T19:28:55;100750.34;;;2.37;81.28
76126;BME280;65174;48.138;21.002;2023-02-15T19:31:57;100757.19;;;2.32;81.58
76126;BME280;65174;48.138;21.002;2023-02-15T19:35:00;100751.31;;;2.24;81.55
76126;BME280;65174;48.138;21.002;2023-02-15T19:38:06;100762.28;;;2.32;80.69
76126;BME280;65174;48.138;21.002;2023-02-15T19:41:17;100753.75;;;2.36;80.63
76126;BME280;65174;48.138;21.002;2023-02-15T19:44:21;100749.53;;;2.34;80.98
76126;BME280;65174;48.138;21.002;2023-02-15T19:47:27;100750.34;;;2.37;80.26
76126;BME280;65174;48.138;21.002;2023-02-15T19:50:30;100752.16;;;2.26;81.11
76126;BME280;65174;48.138;21.002;2023-02-15T19:53:34;100747.19;;;2.13;81.06
76126;BME280;65174;48.138;21.002;2023-02-15T19:56:36;100751.56;;;2.00;82.32
76126;BME280;65174;48.138;21.002;2023-02-15T19:59:39;100747.31;;;2.01;81.90
76126;BME280;65174;48.138;21.002;2023-02-15T20:02:45;100752.44;;;1.96;81.25
76126;BME280;65174;48.138;21.002;2023-02-15T20:05:47;100744.09;;;1.82;83.19
76126;BME280;65174;48.138;21.002;2023-02-15T20:08:50;100728.78;;;1.85;82.15
76126;BME280;65174;48.138;21.002;2023-02-15T20:11:53;100751.63;;;1.91;82.37
76126;BME280;65174;48.138;21.002;2023-02-15T20:14:57;100743.91;;;2.02;81.95
76126;BME280;65174;48.138;21.002;2023-02-15T20:18:00;100746.38;;;2.08;81.53
76126;BME280;65174;48.138;21.002;2023-02-15T20:21:08;100752.31;;;2.10;80.98
76126;BME280;65174;48.138;21.002;2023-02-15T20:24:17;100741.28;;;2.11;80.11
76126;BME280;65174;48.138;21.002;2023-02-15T20:27:20;100741.25;;;2.12;80.53
76126;BME280;65174;48.138;21.002;2023-02-15T20:30:25;100736.22;;;2.03;80.93